If you wish to contribute or participate in the discussions about articles you are invited to join SKYbrary as a registered user

 Actions

Bethlehem Airport

From SKYbrary Wiki

FABM
Airport
ICAO: FABM
Summary
Name Bethlehem Airport
Region Africa
Territory South Africa ZA.gif
Location , Free State
Serving Bethlehem
Elevation 1,694.993 m
5,561 ft
5,561 ft1,694.993 m
Coordinates 28° 14' 54.21" S, 28° 20' 10.05" E
Runways
Designator Length Width Surface ROPS
11/29 1175 m3,854.987 ft
15 m49.213 ft
ASP /
13/31 1311 m4,301.181 ft
46 m150.919 ft
GRS /


METAR
Observation FABM 220853Z 07013KT 9999 BKN015 20/12 Q1026
Station Bethlehem Airport
Date/Time 22 March 2019 08:53:00
Wind direction 70°
Wind speed 13 kts
Lowest cloud amount broken clouds
Temperature 20°C
Dew point 12°C
Humidity 60%
QNH 1026 hPa
Weather condition n/a